メインページ
METAR-TAF:

METAR-TAF

空港 :

Bella Coola, ブリティッシュコロンビア州, カナダ

緯度: 52-23N, 経度: 126-35W, 海抜: 35m

現時点の気象観測

当レポートは7時間59分前の01:00(UTC)に作成
西/北西の風 8kt、最大16ktの突風を伴う
気温 25°C
湿度 39%
気圧 1015 hPa
視程: 24.1km
高度10000ftの雲はほとんどない, 積乱雲.
高度13000ftの雲は散在している
高度26000ftの雲は散在している

METAR: CYBD 230100Z 29008G16KT 15SM FEW100CB SCT130 SCT260 25/10 A2997 RMK CB1ACC2CI1 CI TR CB E LAST STFD OBS/NEXT 231300UTC SLP150 DENSITY ALT 1300FT

時間: 01:59 (08:59 UTC)


TAF: 見つかりません

4,000以上の空港の気象観測と天気予報(METAR報とTAF報)

利用可能な観測所は地図上に黄色い丸と赤い丸で示す。

丸の上にカーソルを重ねると観測所名を参照できる。

次にクリックすると気象観測と天気予報を参照できる。

マップの切り替え:黒色「×」印の緑ボタンをクリックして拡大、「-」印の緑ボタンをクリックして縮小、緑色の三角印をクリックして隣りの地図に切り替え


METAR-TAF: